Strona główna
METAR-TAF:

METAR-TAF

Lotnisko :

Port lotniczy Saarbrücken

Saarbrücken, Niemcy

Szerokość geograficzna: 49-13N, Długość geograficzna: 007-07E, wysokość: 322 m

Aktualna obserwacja pogody

Raport powstał 20 minut temu, godzina 09:20 UTC
Wiatr 9 kt od zachodnio-południowy zachód, zmienny między południowo-południowy zachód i północno-północny zachód
Temperatura 14°C
Wilgotność 55%
Ciśnienie 1009 hPa
Widzialność 10 km lub więcej
Mało chmury na wysokości 3500 ft

METAR: EDDR 070920Z 25009KT 210V340 9999 FEW035 14/05 Q1009 NOSIG

czas: 11:40 (09:40 UTC)

Prognoza

Raport powstał 4 godziny i 40 minut temu, godzina 05:00 UTC
Prognoza ważna od 07 godzina 06 UTC do 08 godzina 06 UTC
Wiatr 7 kt od zachodnio-południowy zachód
Widzialność 10 km lub więcej
Brak chmur poniżej 1500 m i brak chmur cumulonimbus
Stopniowe zmiany
od 07 godzina 17 UTC do 07 godzina 19 UTC
Wiatr 3 kt z kierunków zmiennych

TAF: EDDR 070500Z 0706/0806 24007KT CAVOK BECMG 0717/0719 VRB03KT

Obserwacja i prognoza pogody dla ponad 4000 lotnisk (raport METAR i TAF).

Dostępne stacje oznaczono żółtymi i czerwonymi punktami na mapie.

Najedź kursorem aby zobaczyć nazwę stacji.

Kliknij aby zobaczyć obserwacje i prognozy pogody.

Aby zmienić mapę: kliknij na zielony przycisk z czarnym krzyżykiem, aby powiększyć; na zielony przycisk z myślnikiem, aby pomniejszyć; na zielone strzałki, aby przejść do map sąsiednich.


METAR-TAF: